sensor_id;sensor_type;location;lat;lon;timestamp;temperature;humidity
19952;DHT22;10137;49.406;19.484;2022-08-03T00:02:25;14.60;99.90
19952;DHT22;10137;49.406;19.484;2022-08-03T00:04:53;14.60;99.90
19952;DHT22;10137;49.406;19.484;2022-08-03T00:07:21;14.50;99.90
19952;DHT22;10137;49.406;19.484;2022-08-03T00:09:48;14.50;99.90
19952;DHT22;10137;49.406;19.484;2022-08-03T00:12:18;14.50;99.90
19952;DHT22;10137;49.406;19.484;2022-08-03T00:14:46;14.40;99.90
19952;DHT22;10137;49.406;19.484;2022-08-03T00:17:15;14.40;99.90
19952;DHT22;10137;49.406;19.484;2022-08-03T00:19:42;14.40;99.90
19952;DHT22;10137;49.406;19.484;2022-08-03T00:22:10;14.40;99.90
19952;DHT22;10137;49.406;19.484;2022-08-03T00:24:38;14.30;99.90
19952;DHT22;10137;49.406;19.484;2022-08-03T00:27:06;14.20;99.90
19952;DHT22;10137;49.406;19.484;2022-08-03T00:29:36;14.20;99.90
19952;DHT22;10137;49.406;19.484;2022-08-03T00:32:04;14.20;99.90
19952;DHT22;10137;49.406;19.484;2022-08-03T00:34:32;14.10;99.90
19952;DHT22;10137;49.406;19.484;2022-08-03T00:37:01;14.10;99.90
19952;DHT22;10137;49.406;19.484;2022-08-03T00:39:28;14.10;99.90
19952;DHT22;10137;49.406;19.484;2022-08-03T00:41:56;14.10;99.90
19952;DHT22;10137;49.406;19.484;2022-08-03T00:44:24;14.00;99.90
19952;DHT22;10137;49.406;19.484;2022-08-03T00:46:54;14.00;99.90
19952;DHT22;10137;49.406;19.484;2022-08-03T00:49:22;14.00;99.90
19952;DHT22;10137;49.406;19.484;2022-08-03T00:51:51;14.00;99.90
19952;DHT22;10137;49.406;19.484;2022-08-03T00:54:20;14.00;99.90
19952;DHT22;10137;49.406;19.484;2022-08-03T00:56:48;13.90;99.90
19952;DHT22;10137;49.406;19.484;2022-08-03T00:59:17;13.90;99.90
19952;DHT22;10137;49.406;19.484;2022-08-03T01:01:45;13.80;99.90
19952;DHT22;10137;49.406;19.484;2022-08-03T01:04:15;13.80;99.90
19952;DHT22;10137;49.406;19.484;2022-08-03T01:06:49;13.80;99.90
19952;DHT22;10137;49.406;19.484;2022-08-03T01:09:24;13.70;99.90
19952;DHT22;10137;49.406;19.484;2022-08-03T01:11:59;13.70;99.90
19952;DHT22;10137;49.406;19.484;2022-08-03T01:14:33;13.60;99.90
19952;DHT22;10137;49.406;19.484;2022-08-03T01:17:12;13.60;99.90
19952;DHT22;10137;49.406;19.484;2022-08-03T01:19:48;13.60;99.90
19952;DHT22;10137;49.406;19.484;2022-08-03T01:22:43;13.60;99.90
19952;DHT22;10137;49.406;19.484;2022-08-03T01:25:27;13.60;99.90
19952;DHT22;10137;49.406;19.484;2022-08-03T01:28:12;13.60;99.90
19952;DHT22;10137;49.406;19.484;2022-08-03T01:30:49;13.60;99.90
19952;DHT22;10137;49.406;19.484;2022-08-03T01:33:21;13.60;99.90
19952;DHT22;10137;49.406;19.484;2022-08-03T01:35:58;13.50;99.90
19952;DHT22;10137;49.406;19.484;2022-08-03T01:38:33;13.50;99.90
19952;DHT22;10137;49.406;19.484;2022-08-03T01:41:04;13.50;99.90
19952;DHT22;10137;49.406;19.484;2022-08-03T01:43:36;13.50;99.90
19952;DHT22;10137;49.406;19.484;2022-08-03T01:46:08;13.50;99.90
19952;DHT22;10137;49.406;19.484;2022-08-03T01:48:39;13.50;99.90
19952;DHT22;10137;49.406;19.484;2022-08-03T01:51:09;13.50;99.90
19952;DHT22;10137;49.406;19.484;2022-08-03T01:53:40;13.40;99.90
19952;DHT22;10137;49.406;19.484;2022-08-03T01:56:10;13.40;99.90
19952;DHT22;10137;49.406;19.484;2022-08-03T01:58:39;13.30;99.90
19952;DHT22;10137;49.406;19.484;2022-08-03T02:01:10;13.20;99.90
19952;DHT22;10137;49.406;19.484;2022-08-03T02:03:40;13.30;99.90
19952;DHT22;10137;49.406;19.484;2022-08-03T02:06:11;13.20;99.90
19952;DHT22;10137;49.406;19.484;2022-08-03T02:08:42;13.20;99.90
19952;DHT22;10137;49.406;19.484;2022-08-03T02:11:11;13.10;99.90
19952;DHT22;10137;49.406;19.484;2022-08-03T02:13:39;13.10;99.90
19952;DHT22;10137;49.406;19.484;2022-08-03T02:16:10;13.10;99.90
19952;DHT22;10137;49.406;19.484;2022-08-03T02:18:39;13.00;99.90
19952;DHT22;10137;49.406;19.484;2022-08-03T02:21:09;13.00;99.90
19952;DHT22;10137;49.406;19.484;2022-08-03T02:23:39;13.00;99.90
19952;DHT22;10137;49.406;19.484;2022-08-03T02:26:10;13.10;99.90
19952;DHT22;10137;49.406;19.484;2022-08-03T02:28:43;13.10;99.90
19952;DHT22;10137;49.406;19.484;2022-08-03T02:31:15;13.10;99.90
19952;DHT22;10137;49.406;19.484;2022-08-03T02:33:48;13.10;99.90
19952;DHT22;10137;49.406;19.484;2022-08-03T02:36:22;13.10;99.90
19952;DHT22;10137;49.406;19.484;2022-08-03T02:38:54;13.10;99.90
19952;DHT22;10137;49.406;19.484;2022-08-03T02:41:34;13.00;99.90
19952;DHT22;10137;49.406;19.484;2022-08-03T02:44:08;13.00;99.90
19952;DHT22;10137;49.406;19.484;2022-08-03T02:46:40;13.00;99.90
19952;DHT22;10137;49.406;19.484;2022-08-03T02:49:11;13.00;99.90
19952;DHT22;10137;49.406;19.484;2022-08-03T02:51:40;12.90;99.90
19952;DHT22;10137;49.406;19.484;2022-08-03T02:54:10;12.90;99.90
19952;DHT22;10137;49.406;19.484;2022-08-03T02:56:38;12.80;99.90
19952;DHT22;10137;49.406;19.484;2022-08-03T02:59:08;12.80;99.90
19952;DHT22;10137;49.406;19.484;2022-08-03T03:01:38;12.80;99.90
19952;DHT22;10137;49.406;19.484;2022-08-03T03:04:06;12.70;99.90
19952;DHT22;10137;49.406;19.484;2022-08-03T03:06:34;12.70;99.90
19952;DHT22;10137;49.406;19.484;2022-08-03T03:09:02;12.70;99.90
19952;DHT22;10137;49.406;19.484;2022-08-03T03:11:31;12.60;99.90
19952;DHT22;10137;49.406;19.484;2022-08-03T03:13:59;12.70;99.90
19952;DHT22;10137;49.406;19.484;2022-08-03T03:16:29;12.60;99.90
19952;DHT22;10137;49.406;19.484;2022-08-03T03:18:59;12.60;99.90
19952;DHT22;10137;49.406;19.484;2022-08-03T03:21:30;12.60;99.90
19952;DHT22;10137;49.406;19.484;2022-08-03T03:23:58;12.60;99.90
19952;DHT22;10137;49.406;19.484;2022-08-03T03:26:27;12.50;99.90
19952;DHT22;10137;49.406;19.484;2022-08-03T03:28:55;12.50;99.90
19952;DHT22;10137;49.406;19.484;2022-08-03T03:31:23;12.50;99.90
19952;DHT22;10137;49.406;19.484;2022-08-03T03:33:51;12.50;99.90
19952;DHT22;10137;49.406;19.484;2022-08-03T03:36:19;12.40;99.90
19952;DHT22;10137;49.406;19.484;2022-08-03T03:38:47;12.40;99.90
19952;DHT22;10137;49.406;19.484;2022-08-03T03:41:15;12.40;99.90
19952;DHT22;10137;49.406;19.484;2022-08-03T03:43:43;12.40;99.90
19952;DHT22;10137;49.406;19.484;2022-08-03T03:46:11;12.40;99.90
19952;DHT22;10137;49.406;19.484;2022-08-03T03:48:39;12.40;99.90
19952;DHT22;10137;49.406;19.484;2022-08-03T03:51:09;12.40;99.90
19952;DHT22;10137;49.406;19.484;2022-08-03T03:53:37;12.30;99.90
19952;DHT22;10137;49.406;19.484;2022-08-03T03:56:05;12.30;99.90
19952;DHT22;10137;49.406;19.484;2022-08-03T03:58:33;12.30;99.90
19952;DHT22;10137;49.406;19.484;2022-08-03T04:01:01;12.30;99.90
19952;DHT22;10137;49.406;19.484;2022-08-03T04:03:29;12.30;99.90
19952;DHT22;10137;49.406;19.484;2022-08-03T04:05:57;12.30;99.90
19952;DHT22;10137;49.406;19.484;2022-08-03T04:08:43;12.30;99.90
19952;DHT22;10137;49.406;19.484;2022-08-03T04:11:46;12.30;99.90
19952;DHT22;10137;49.406;19.484;2022-08-03T04:14:18;12.20;99.90
19952;DHT22;10137;49.406;19.484;2022-08-03T04:16:49;12.20;99.90
19952;DHT22;10137;49.406;19.484;2022-08-03T04:19:18;12.10;99.90
19952;DHT22;10137;49.406;19.484;2022-08-03T04:21:49;12.10;99.90
19952;DHT22;10137;49.406;19.484;2022-08-03T04:24:20;12.10;99.90
19952;DHT22;10137;49.406;19.484;2022-08-03T04:26:48;12.20;99.90
19952;DHT22;10137;49.406;19.484;2022-08-03T04:29:18;12.30;99.90
19952;DHT22;10137;49.406;19.484;2022-08-03T04:31:48;12.30;99.90
19952;DHT22;10137;49.406;19.484;2022-08-03T04:34:17;12.40;99.90
19952;DHT22;10137;49.406;19.484;2022-08-03T04:36:48;12.40;99.90
19952;DHT22;10137;49.406;19.484;2022-08-03T04:39:24;12.50;99.90
19952;DHT22;10137;49.406;19.484;2022-08-03T04:41:54;12.50;99.90
19952;DHT22;10137;49.406;19.484;2022-08-03T04:44:24;12.50;99.90
19952;DHT22;10137;49.406;19.484;2022-08-03T04:46:54;12.60;99.90
19952;DHT22;10137;49.406;19.484;2022-08-03T04:49:23;12.70;99.90
19952;DHT22;10137;49.406;19.484;2022-08-03T04:51:52;12.70;99.90
19952;DHT22;10137;49.406;19.484;2022-08-03T04:54:20;12.80;99.90
19952;DHT22;10137;49.406;19.484;2022-08-03T04:56:48;12.80;99.90
19952;DHT22;10137;49.406;19.484;2022-08-03T04:59:16;12.90;99.90
19952;DHT22;10137;49.406;19.484;2022-08-03T05:01:45;13.00;99.90
19952;DHT22;10137;49.406;19.484;2022-08-03T05:04:13;13.10;99.90
19952;DHT22;10137;49.406;19.484;2022-08-03T05:06:41;13.30;99.90
19952;DHT22;10137;49.406;19.484;2022-08-03T05:09:09;13.50;99.90
19952;DHT22;10137;49.406;19.484;2022-08-03T05:11:38;13.60;99.90
19952;DHT22;10137;49.406;19.484;2022-08-03T05:14:07;13.80;99.90
19952;DHT22;10137;49.406;19.484;2022-08-03T05:16:35;14.00;99.90
19952;DHT22;10137;49.406;19.484;2022-08-03T05:19:03;14.10;99.90
19952;DHT22;10137;49.406;19.484;2022-08-03T05:21:31;14.30;99.90
19952;DHT22;10137;49.406;19.484;2022-08-03T05:23:59;14.50;99.90
19952;DHT22;10137;49.406;19.484;2022-08-03T05:26:27;14.60;99.90
19952;DHT22;10137;49.406;19.484;2022-08-03T05:28:55;14.80;99.90
19952;DHT22;10137;49.406;19.484;2022-08-03T05:31:25;14.90;99.90
19952;DHT22;10137;49.406;19.484;2022-08-03T05:33:53;15.10;99.90
19952;DHT22;10137;49.406;19.484;2022-08-03T05:36:22;15.40;99.90
19952;DHT22;10137;49.406;19.484;2022-08-03T05:38:50;15.50;99.90
19952;DHT22;10137;49.406;19.484;2022-08-03T05:41:19;15.80;99.90
19952;DHT22;10137;49.406;19.484;2022-08-03T05:43:47;15.90;99.90
19952;DHT22;10137;49.406;19.484;2022-08-03T05:46:17;16.20;99.90
19952;DHT22;10137;49.406;19.484;2022-08-03T05:48:51;16.40;99.90
19952;DHT22;10137;49.406;19.484;2022-08-03T05:51:18;16.70;99.90
19952;DHT22;10137;49.406;19.484;2022-08-03T05:53:47;16.90;99.90
19952;DHT22;10137;49.406;19.484;2022-08-03T05:56:15;17.10;99.90
19952;DHT22;10137;49.406;19.484;2022-08-03T05:58:46;17.20;99.90
19952;DHT22;10137;49.406;19.484;2022-08-03T06:01:16;17.40;99.90
19952;DHT22;10137;49.406;19.484;2022-08-03T06:03:44;17.70;99.90
19952;DHT22;10137;49.406;19.484;2022-08-03T06:06:14;18.00;99.90
19952;DHT22;10137;49.406;19.484;2022-08-03T06:08:43;18.20;99.90
19952;DHT22;10137;49.406;19.484;2022-08-03T06:11:11;18.40;99.90
19952;DHT22;10137;49.406;19.484;2022-08-03T06:13:40;18.50;99.90
19952;DHT22;10137;49.406;19.484;2022-08-03T06:16:08;18.60;99.90
19952;DHT22;10137;49.406;19.484;2022-08-03T06:18:36;18.60;99.90
19952;DHT22;10137;49.406;19.484;2022-08-03T06:21:06;18.80;99.90
19952;DHT22;10137;49.406;19.484;2022-08-03T06:23:38;19.10;99.90
19952;DHT22;10137;49.406;19.484;2022-08-03T06:26:09;19.40;99.90
19952;DHT22;10137;49.406;19.484;2022-08-03T06:28:37;19.70;99.90
19952;DHT22;10137;49.406;19.484;2022-08-03T06:31:05;20.00;99.90
19952;DHT22;10137;49.406;19.484;2022-08-03T06:33:33;20.20;99.90
19952;DHT22;10137;49.406;19.484;2022-08-03T06:36:02;20.40;99.90
19952;DHT22;10137;49.406;19.484;2022-08-03T06:38:30;20.60;99.90
19952;DHT22;10137;49.406;19.484;2022-08-03T06:41:00;21.00;99.90
19952;DHT22;10137;49.406;19.484;2022-08-03T06:43:29;21.00;99.90
19952;DHT22;10137;49.406;19.484;2022-08-03T06:45:57;21.00;99.90
19952;DHT22;10137;49.406;19.484;2022-08-03T06:48:26;21.00;99.90
19952;DHT22;10137;49.406;19.484;2022-08-03T06:50:55;21.40;99.90
19952;DHT22;10137;49.406;19.484;2022-08-03T06:53:23;21.70;99.90
19952;DHT22;10137;49.406;19.484;2022-08-03T06:55:52;21.70;99.90
19952;DHT22;10137;49.406;19.484;2022-08-03T06:58:25;21.90;99.90
19952;DHT22;10137;49.406;19.484;2022-08-03T07:00:53;22.10;99.90
19952;DHT22;10137;49.406;19.484;2022-08-03T07:03:22;22.30;99.90
19952;DHT22;10137;49.406;19.484;2022-08-03T07:05:50;22.50;99.90
19952;DHT22;10137;49.406;19.484;2022-08-03T07:08:17;22.70;99.90
19952;DHT22;10137;49.406;19.484;2022-08-03T07:10:46;22.50;99.90
19952;DHT22;10137;49.406;19.484;2022-08-03T07:13:14;22.30;99.90
19952;DHT22;10137;49.406;19.484;2022-08-03T07:15:44;22.00;99.90
19952;DHT22;10137;49.406;19.484;2022-08-03T07:18:12;21.90;99.90
19952;DHT22;10137;49.406;19.484;2022-08-03T07:20:40;22.30;99.90
19952;DHT22;10137;49.406;19.484;2022-08-03T07:23:10;22.60;99.90
19952;DHT22;10137;49.406;19.484;2022-08-03T07:25:41;22.80;99.90
19952;DHT22;10137;49.406;19.484;2022-08-03T07:28:09;23.10;99.90
19952;DHT22;10137;49.406;19.484;2022-08-03T07:30:38;23.80;99.90
19952;DHT22;10137;49.406;19.484;2022-08-03T07:33:07;24.30;99.90
19952;DHT22;10137;49.406;19.484;2022-08-03T07:35:35;24.80;99.90
19952;DHT22;10137;49.406;19.484;2022-08-03T07:38:03;25.30;99.90
19952;DHT22;10137;49.406;19.484;2022-08-03T07:40:30;25.80;99.90
19952;DHT22;10137;49.406;19.484;2022-08-03T07:43:00;26.20;99.90
19952;DHT22;10137;49.406;19.484;2022-08-03T07:45:31;26.70;99.90
19952;DHT22;10137;49.406;19.484;2022-08-03T07:47:59;26.90;99.90
19952;DHT22;10137;49.406;19.484;2022-08-03T07:50:29;27.00;99.90
19952;DHT22;10137;49.406;19.484;2022-08-03T07:52:57;27.40;99.90
19952;DHT22;10137;49.406;19.484;2022-08-03T07:55:28;27.60;99.90
19952;DHT22;10137;49.406;19.484;2022-08-03T07:58:03;27.60;99.90
19952;DHT22;10137;49.406;19.484;2022-08-03T08:00:32;27.70;99.90
19952;DHT22;10137;49.406;19.484;2022-08-03T08:03:04;28.10;99.90
19952;DHT22;10137;49.406;19.484;2022-08-03T08:05:33;28.20;99.90
19952;DHT22;10137;49.406;19.484;2022-08-03T08:08:00;28.40;99.90
19952;DHT22;10137;49.406;19.484;2022-08-03T08:10:31;28.10;99.90
19952;DHT22;10137;49.406;19.484;2022-08-03T08:13:00;27.50;99.90
19952;DHT22;10137;49.406;19.484;2022-08-03T08:15:27;27.00;99.90
19952;DHT22;10137;49.406;19.484;2022-08-03T08:17:58;26.50;99.90
19952;DHT22;10137;49.406;19.484;2022-08-03T08:20:29;26.80;99.90
19952;DHT22;10137;49.406;19.484;2022-08-03T08:23:00;27.30;99.90
19952;DHT22;10137;49.406;19.484;2022-08-03T08:25:30;28.00;99.90
19952;DHT22;10137;49.406;19.484;2022-08-03T08:27:58;28.50;99.90
19952;DHT22;10137;49.406;19.484;2022-08-03T08:30:28;28.90;99.90
19952;DHT22;10137;49.406;19.484;2022-08-03T08:32:57;29.40;99.90
19952;DHT22;10137;49.406;19.484;2022-08-03T08:35:25;29.90;99.90
19952;DHT22;10137;49.406;19.484;2022-08-03T08:37:53;30.60;98.90
19952;DHT22;10137;49.406;19.484;2022-08-03T08:40:23;30.60;90.00
19952;DHT22;10137;49.406;19.484;2022-08-03T08:42:51;30.50;85.90
19952;DHT22;10137;49.406;19.484;2022-08-03T08:45:22;30.80;87.40
19952;DHT22;10137;49.406;19.484;2022-08-03T08:47:49;31.20;80.50
19952;DHT22;10137;49.406;19.484;2022-08-03T08:50:19;31.20;76.10
19952;DHT22;10137;49.406;19.484;2022-08-03T08:52:48;30.90;72.80
19952;DHT22;10137;49.406;19.484;2022-08-03T08:55:20;31.10;75.30
19952;DHT22;10137;49.406;19.484;2022-08-03T08:57:49;30.90;70.90
19952;DHT22;10137;49.406;19.484;2022-08-03T09:00:18;30.30;69.10
19952;DHT22;10137;49.406;19.484;2022-08-03T09:02:45;30.20;68.50
19952;DHT22;10137;49.406;19.484;2022-08-03T09:05:13;30.40;67.70
19952;DHT22;10137;49.406;19.484;2022-08-03T09:07:41;30.30;70.30
19952;DHT22;10137;49.406;19.484;2022-08-03T09:10:10;29.90;67.70
19952;DHT22;10137;49.406;19.484;2022-08-03T09:12:38;29.20;67.10
19952;DHT22;10137;49.406;19.484;2022-08-03T09:15:21;28.70;65.30
19952;DHT22;10137;49.406;19.484;2022-08-03T09:17:49;28.80;68.30
19952;DHT22;10137;49.406;19.484;2022-08-03T09:20:19;28.60;71.10
19952;DHT22;10137;49.406;19.484;2022-08-03T09:22:52;28.40;68.10
19952;DHT22;10137;49.406;19.484;2022-08-03T09:25:26;28.30;67.40
19952;DHT22;10137;49.406;19.484;2022-08-03T09:27:53;28.70;65.50
19952;DHT22;10137;49.406;19.484;2022-08-03T09:30:23;28.70;67.40
19952;DHT22;10137;49.406;19.484;2022-08-03T09:32:50;28.50;67.00
19952;DHT22;10137;49.406;19.484;2022-08-03T09:35:27;28.00;65.30
19952;DHT22;10137;49.406;19.484;2022-08-03T09:38:11;28.10;65.90
19952;DHT22;10137;49.406;19.484;2022-08-03T09:40:43;28.00;68.20
19952;DHT22;10137;49.406;19.484;2022-08-03T09:43:11;27.90;68.40
19952;DHT22;10137;49.406;19.484;2022-08-03T09:45:41;27.50;69.00
19952;DHT22;10137;49.406;19.484;2022-08-03T09:48:26;27.20;72.00
19952;DHT22;10137;49.406;19.484;2022-08-03T09:50:58;26.70;68.60
19952;DHT22;10137;49.406;19.484;2022-08-03T09:53:26;26.70;69.40
19952;DHT22;10137;49.406;19.484;2022-08-03T09:55:57;26.60;69.30
19952;DHT22;10137;49.406;19.484;2022-08-03T09:58:27;26.60;69.40
19952;DHT22;10137;49.406;19.484;2022-08-03T10:00:58;26.50;68.70
19952;DHT22;10137;49.406;19.484;2022-08-03T10:03:28;26.60;70.90
19952;DHT22;10137;49.406;19.484;2022-08-03T10:05:56;26.50;70.60
19952;DHT22;10137;49.406;19.484;2022-08-03T10:08:23;26.40;70.10
19952;DHT22;10137;49.406;19.484;2022-08-03T10:10:51;26.40;69.30
19952;DHT22;10137;49.406;19.484;2022-08-03T10:13:21;26.30;68.60
19952;DHT22;10137;49.406;19.484;2022-08-03T10:15:50;26.30;70.30
19952;DHT22;10137;49.406;19.484;2022-08-03T10:18:19;26.50;72.50
19952;DHT22;10137;49.406;19.484;2022-08-03T10:20:50;26.50;72.00
19952;DHT22;10137;49.406;19.484;2022-08-03T10:23:19;26.60;71.00
19952;DHT22;10137;49.406;19.484;2022-08-03T10:25:51;26.60;71.70
19952;DHT22;10137;49.406;19.484;2022-08-03T10:28:21;26.50;70.80
19952;DHT22;10137;49.406;19.484;2022-08-03T10:30:52;26.40;71.00
19952;DHT22;10137;49.406;19.484;2022-08-03T10:33:26;26.50;71.50
19952;DHT22;10137;49.406;19.484;2022-08-03T10:35:56;26.40;70.40
19952;DHT22;10137;49.406;19.484;2022-08-03T10:38:28;26.40;71.90
19952;DHT22;10137;49.406;19.484;2022-08-03T10:41:00;26.30;70.50
19952;DHT22;10137;49.406;19.484;2022-08-03T10:43:35;26.30;70.70
19952;DHT22;10137;49.406;19.484;2022-08-03T10:46:08;26.40;72.20
19952;DHT22;10137;49.406;19.484;2022-08-03T10:48:40;26.50;71.30
19952;DHT22;10137;49.406;19.484;2022-08-03T10:51:09;26.40;72.40
19952;DHT22;10137;49.406;19.484;2022-08-03T10:53:38;26.50;72.30
19952;DHT22;10137;49.406;19.484;2022-08-03T10:56:37;26.50;71.90
19952;DHT22;10137;49.406;19.484;2022-08-03T11:02:19;26.30;70.70
19952;DHT22;10137;49.406;19.484;2022-08-03T11:05:25;26.30;71.40
19952;DHT22;10137;49.406;19.484;2022-08-03T11:11:01;26.10;68.90
19952;DHT22;10137;49.406;19.484;2022-08-03T11:13:31;25.80;70.80
19952;DHT22;10137;49.406;19.484;2022-08-03T11:16:03;25.60;71.00
19952;DHT22;10137;49.406;19.484;2022-08-03T11:18:55;25.70;70.60
19952;DHT22;10137;49.406;19.484;2022-08-03T11:21:55;25.80;68.60
19952;DHT22;10137;49.406;19.484;2022-08-03T11:24:58;26.00;68.40
19952;DHT22;10137;49.406;19.484;2022-08-03T11:27:28;26.10;66.50
19952;DHT22;10137;49.406;19.484;2022-08-03T11:29:59;26.00;65.20
19952;DHT22;10137;49.406;19.484;2022-08-03T11:32:52;26.00;66.30
19952;DHT22;10137;49.406;19.484;2022-08-03T11:35:23;26.10;66.30
19952;DHT22;10137;49.406;19.484;2022-08-03T11:38:11;25.90;71.10
19952;DHT22;10137;49.406;19.484;2022-08-03T11:40:41;25.80;71.60
19952;DHT22;10137;49.406;19.484;2022-08-03T11:46:15;25.70;68.70
19952;DHT22;10137;49.406;19.484;2022-08-03T11:48:46;25.60;69.60
19952;DHT22;10137;49.406;19.484;2022-08-03T11:51:23;25.50;69.80
19952;DHT22;10137;49.406;19.484;2022-08-03T11:53:57;25.50;73.30
19952;DHT22;10137;49.406;19.484;2022-08-03T11:56:26;25.50;73.90
19952;DHT22;10137;49.406;19.484;2022-08-03T11:58:56;25.40;73.00
19952;DHT22;10137;49.406;19.484;2022-08-03T12:01:26;25.40;73.10
19952;DHT22;10137;49.406;19.484;2022-08-03T12:04:02;25.30;75.90
19952;DHT22;10137;49.406;19.484;2022-08-03T12:06:30;25.30;76.50
19952;DHT22;10137;49.406;19.484;2022-08-03T12:09:20;25.30;78.60
19952;DHT22;10137;49.406;19.484;2022-08-03T12:11:49;25.20;76.50
19952;DHT22;10137;49.406;19.484;2022-08-03T12:14:18;25.10;78.50
19952;DHT22;10137;49.406;19.484;2022-08-03T12:16:46;25.00;74.50
19952;DHT22;10137;49.406;19.484;2022-08-03T12:19:15;24.90;72.60
19952;DHT22;10137;49.406;19.484;2022-08-03T12:21:46;25.00;75.90
19952;DHT22;10137;49.406;19.484;2022-08-03T12:24:15;24.90;74.30
19952;DHT22;10137;49.406;19.484;2022-08-03T12:26:45;24.90;75.50
19952;DHT22;10137;49.406;19.484;2022-08-03T12:29:16;24.90;77.70
19952;DHT22;10137;49.406;19.484;2022-08-03T12:31:45;24.90;76.30
19952;DHT22;10137;49.406;19.484;2022-08-03T12:34:13;24.90;75.00
19952;DHT22;10137;49.406;19.484;2022-08-03T12:36:50;24.90;76.60
19952;DHT22;10137;49.406;19.484;2022-08-03T12:39:22;24.80;75.50
19952;DHT22;10137;49.406;19.484;2022-08-03T12:41:53;24.80;77.30
19952;DHT22;10137;49.406;19.484;2022-08-03T12:44:29;24.90;80.30
19952;DHT22;10137;49.406;19.484;2022-08-03T12:46:58;24.90;79.20
19952;DHT22;10137;49.406;19.484;2022-08-03T12:49:26;24.80;75.70
19952;DHT22;10137;49.406;19.484;2022-08-03T12:51:58;24.80;75.50
19952;DHT22;10137;49.406;19.484;2022-08-03T12:54:27;24.80;76.90
19952;DHT22;10137;49.406;19.484;2022-08-03T12:57:00;24.80;75.50
19952;DHT22;10137;49.406;19.484;2022-08-03T12:59:28;24.80;76.90
19952;DHT22;10137;49.406;19.484;2022-08-03T13:01:57;24.90;78.60
19952;DHT22;10137;49.406;19.484;2022-08-03T13:04:26;24.90;80.50
19952;DHT22;10137;49.406;19.484;2022-08-03T13:06:58;24.90;77.70
19952;DHT22;10137;49.406;19.484;2022-08-03T13:09:27;24.80;78.10
19952;DHT22;10137;49.406;19.484;2022-08-03T13:12:10;24.80;80.50
19952;DHT22;10137;49.406;19.484;2022-08-03T13:14:39;24.80;77.60
19952;DHT22;10137;49.406;19.484;2022-08-03T13:17:08;24.80;76.30
19952;DHT22;10137;49.406;19.484;2022-08-03T13:19:37;24.90;80.70
19952;DHT22;10137;49.406;19.484;2022-08-03T13:22:12;24.80;80.70
19952;DHT22;10137;49.406;19.484;2022-08-03T13:24:42;24.80;79.90
19952;DHT22;10137;49.406;19.484;2022-08-03T13:27:13;24.80;76.00
19952;DHT22;10137;49.406;19.484;2022-08-03T13:29:40;24.70;75.70
19952;DHT22;10137;49.406;19.484;2022-08-03T13:32:09;24.80;79.20
19952;DHT22;10137;49.406;19.484;2022-08-03T13:34:37;24.80;78.70
19952;DHT22;10137;49.406;19.484;2022-08-03T13:37:06;24.70;78.10
19952;DHT22;10137;49.406;19.484;2022-08-03T13:39:34;24.70;77.80
19952;DHT22;10137;49.406;19.484;2022-08-03T13:42:02;24.70;79.10
19952;DHT22;10137;49.406;19.484;2022-08-03T13:44:31;24.70;79.20
19952;DHT22;10137;49.406;19.484;2022-08-03T13:46:59;24.80;80.80
19952;DHT22;10137;49.406;19.484;2022-08-03T13:49:26;24.80;79.60
19952;DHT22;10137;49.406;19.484;2022-08-03T13:51:53;24.70;77.70
19952;DHT22;10137;49.406;19.484;2022-08-03T13:54:22;24.80;76.10
19952;DHT22;10137;49.406;19.484;2022-08-03T13:56:50;24.80;76.50
19952;DHT22;10137;49.406;19.484;2022-08-03T13:59:18;24.80;75.30
19952;DHT22;10137;49.406;19.484;2022-08-03T14:01:49;24.70;76.30
19952;DHT22;10137;49.406;19.484;2022-08-03T14:04:18;24.80;78.60
19952;DHT22;10137;49.406;19.484;2022-08-03T14:06:46;24.80;75.20
19952;DHT22;10137;49.406;19.484;2022-08-03T14:09:15;24.80;75.60
19952;DHT22;10137;49.406;19.484;2022-08-03T14:11:44;24.80;76.70
19952;DHT22;10137;49.406;19.484;2022-08-03T14:14:12;24.80;74.60
19952;DHT22;10137;49.406;19.484;2022-08-03T14:16:40;24.80;79.10
19952;DHT22;10137;49.406;19.484;2022-08-03T14:19:10;24.80;76.20
19952;DHT22;10137;49.406;19.484;2022-08-03T14:21:38;24.80;76.50
19952;DHT22;10137;49.406;19.484;2022-08-03T14:24:07;24.80;77.90
19952;DHT22;10137;49.406;19.484;2022-08-03T14:26:34;24.90;78.70
19952;DHT22;10137;49.406;19.484;2022-08-03T14:29:02;24.90;79.10
19952;DHT22;10137;49.406;19.484;2022-08-03T14:31:30;24.90;78.50
19952;DHT22;10137;49.406;19.484;2022-08-03T14:33:59;24.90;77.80
19952;DHT22;10137;49.406;19.484;2022-08-03T14:36:29;24.90;78.50
19952;DHT22;10137;49.406;19.484;2022-08-03T14:38:56;24.90;80.10
19952;DHT22;10137;49.406;19.484;2022-08-03T14:41:24;24.90;79.40
19952;DHT22;10137;49.406;19.484;2022-08-03T14:43:52;24.90;79.10
19952;DHT22;10137;49.406;19.484;2022-08-03T14:46:22;24.90;81.60
19952;DHT22;10137;49.406;19.484;2022-08-03T14:48:50;24.90;80.50
19952;DHT22;10137;49.406;19.484;2022-08-03T14:51:18;24.90;79.10
19952;DHT22;10137;49.406;19.484;2022-08-03T14:53:46;24.90;81.20
19952;DHT22;10137;49.406;19.484;2022-08-03T14:56:15;25.00;79.90
19952;DHT22;10137;49.406;19.484;2022-08-03T14:58:43;25.00;79.30
19952;DHT22;10137;49.406;19.484;2022-08-03T15:01:11;25.00;75.30
19952;DHT22;10137;49.406;19.484;2022-08-03T15:03:39;25.00;74.60
19952;DHT22;10137;49.406;19.484;2022-08-03T15:06:08;25.00;77.20
19952;DHT22;10137;49.406;19.484;2022-08-03T15:08:35;25.00;78.40
19952;DHT22;10137;49.406;19.484;2022-08-03T15:11:06;25.10;77.50
19952;DHT22;10137;49.406;19.484;2022-08-03T15:13:34;25.10;76.90
19952;DHT22;10137;49.406;19.484;2022-08-03T15:16:02;25.10;78.00
19952;DHT22;10137;49.406;19.484;2022-08-03T15:18:30;25.10;78.50
19952;DHT22;10137;49.406;19.484;2022-08-03T15:20:58;25.10;78.50
19952;DHT22;10137;49.406;19.484;2022-08-03T15:23:26;25.10;78.30
19952;DHT22;10137;49.406;19.484;2022-08-03T15:25:55;25.10;76.50
19952;DHT22;10137;49.406;19.484;2022-08-03T15:28:24;25.10;76.30
19952;DHT22;10137;49.406;19.484;2022-08-03T15:30:53;25.10;75.90
19952;DHT22;10137;49.406;19.484;2022-08-03T15:33:21;25.10;79.40
19952;DHT22;10137;49.406;19.484;2022-08-03T15:35:49;25.10;76.20
19952;DHT22;10137;49.406;19.484;2022-08-03T15:38:18;25.00;77.30
19952;DHT22;10137;49.406;19.484;2022-08-03T15:40:48;25.00;78.00
19952;DHT22;10137;49.406;19.484;2022-08-03T15:43:20;25.00;77.80
19952;DHT22;10137;49.406;19.484;2022-08-03T15:45:49;25.00;75.60